1TS5 weather

Sugar Grove Heliport
Stafford, Texas, United States

Public forecast

Using degrees Fahrenheit for public forecast. Weather courtesy of forecast.io.

METAR (pilot weather report)

Closest report is Sugar Land Regional Airport, 4.1 nm (7.7 km) WSW. Retrieved 2019/07/24 04:53 UTC (55 minutes ago):

KSGR 240453Z AUTO 03006KT 10SM SCT060 25/20 A3003 RMK AO2 SLP170 T02500200

TAF (pilot weather forecast)

Forecast is more than 12 hours old.

Closest forecast is Sugar Land Regional Airport, 4.1 nm (7.7 km) WSW. Retrieved 2019/07/23 00:22 UTC (1 day ago):

TAF KSGR 232320Z 2400/2424 02008KT P6SM SCT035 SCT060 FM240300 03004KT P6SM SKC FM241400 03010KT P6SM SKC